Newquay, United Kingdom

7:52 PM BST on August 27, 2014 (GMT +0100)
Newquay | Change Station
CLOSE
Current Station
Personal Weather Station
Location: Newquay, CORNWALL
Elevation: 119 ft
Nearby Weather Stations

Elev 119 ft 50.42 °N, 5.05 °W | Updated 7 minutes ago

Light Rain
Light Rain Drizzle
63.3 °F
Feels Like 63.3 °F
N
7.0
Wind Variable Wind from West
Gusts 13.0 mph

Today
High -- | Low -- °F
--% Chance of Precip.
Yesterday
High -- | Low -- °F
Precip. -- in
6:26 AM 8:15 PM
Waxing Crescent, 4% visible
Pressure 29.71 in
Visibility 1.6 miles
Clouds Few 200 ft
Scattered Clouds 300 ft
Overcast 500 ft
Dew Point 62 °F
Humidity 95%
Rainfall 0.02 in
Snow Depth Not available.
UV 0 out of 12
Pollen Not available.
Air Quality Not available.
Flu Activity Not available.
METAR EGDR 271839Z 22010KT 2500 -RADZ FEW002 SCT003 OVC005 16/16 Q1006 YLO2 NOSIG

More Conditions Fewer Conditions

Pressure 29.71 in
Visibility 1.6 miles
Clouds Few 200 ft
Scattered Clouds 300 ft
Overcast 500 ft
Dew Point 62 °F
Humidity 95%
Rainfall 0.02 in
Snow Depth Not available.
UV 0 out of 12
Pollen Not available.
Air Quality Not available.
Flu Activity Not available.
METAR EGDR 271839Z 22010KT 2500 -RADZ FEW002 SCT003 OVC005 16/16 Q1006 YLO2 NOSIG

More Conditions Fewer Conditions

10-Day Weather Forecast

Almanac

Astronomy

Aug. 27, 2014 Rise Set
Actual Time 6:26 AM BST 8:15 PM BST
Civil Twilight 5:51 AM BST 8:50 PM BST
Nautical Twilight 5:08 AM BST 9:32 PM BST
Astronomical Twilight 4:21 AM BST 10:19 PM BST
Moon 8:24 AM BST 8:42 PM BST
Length of Visible Light 14h 58m
Length of Day
13h 49m
Tomorrow will be 3m 37s shorter.
Waxing Crescent, 4% of the Moon is Illuminated
Today
Waxing Crescent
Sep 2
First Quarter
Sep 8
Full
Sep 15
Last Quarter
Sep 24
New

Today's Extremes

Country Highs Country Lows

Community

WunderPhotos

Upload Photos

1,747,752 photos uploaded!

Nearby

Snow Depth

Not available.

Earthquake Activity

City Distance Mag. Time & Date
No recent earthquake activity has been reported nearby.
Minimum magnitude displayed is 2.5.

Coastal Water Temperatures

Place Temperature
No Stations Reporting

Nearby Weather Stations